sensor_id;sensor_type;location;lat;lon;timestamp;pressure;altitude;pressure_sealevel;temperature;humidity
28310;BME280;15571;50.974;13.936;2024-01-11T00:01:29;101577.31;;;-4.25;100.00
28310;BME280;15571;50.974;13.936;2024-01-11T00:04:33;101577.22;;;-4.26;100.00
28310;BME280;15571;50.974;13.936;2024-01-11T00:07:34;101571.28;;;-4.25;100.00
28310;BME280;15571;50.974;13.936;2024-01-11T00:10:37;101568.63;;;-4.27;100.00
28310;BME280;15571;50.974;13.936;2024-01-11T00:13:41;101563.28;;;-4.30;100.00
28310;BME280;15571;50.974;13.936;2024-01-11T00:16:43;101567.75;;;-4.27;100.00
28310;BME280;15571;50.974;13.936;2024-01-11T00:19:46;101566.50;;;-4.32;100.00
28310;BME280;15571;50.974;13.936;2024-01-11T00:22:49;101558.41;;;-4.27;100.00
28310;BME280;15571;50.974;13.936;2024-01-11T00:25:51;101571.09;;;-4.28;100.00
28310;BME280;15571;50.974;13.936;2024-01-11T00:28:53;101565.28;;;-4.38;100.00
28310;BME280;15571;50.974;13.936;2024-01-11T00:31:55;101566.38;;;-4.34;100.00
28310;BME280;15571;50.974;13.936;2024-01-11T00:35:00;101564.38;;;-4.38;100.00
28310;BME280;15571;50.974;13.936;2024-01-11T00:38:04;101563.25;;;-4.42;100.00
28310;BME280;15571;50.974;13.936;2024-01-11T00:41:06;101553.69;;;-4.44;100.00
28310;BME280;15571;50.974;13.936;2024-01-11T00:44:08;101549.84;;;-4.49;100.00
28310;BME280;15571;50.974;13.936;2024-01-11T00:47:10;101541.31;;;-4.50;100.00
28310;BME280;15571;50.974;13.936;2024-01-11T00:50:13;101541.91;;;-4.42;100.00
28310;BME280;15571;50.974;13.936;2024-01-11T00:53:15;101543.44;;;-4.44;100.00
28310;BME280;15571;50.974;13.936;2024-01-11T00:56:17;101545.16;;;-4.55;100.00
28310;BME280;15571;50.974;13.936;2024-01-11T00:59:20;101538.72;;;-4.62;100.00
28310;BME280;15571;50.974;13.936;2024-01-11T01:02:22;101531.88;;;-4.51;100.00
28310;BME280;15571;50.974;13.936;2024-01-11T01:05:29;101530.06;;;-4.52;100.00
28310;BME280;15571;50.974;13.936;2024-01-11T01:08:31;101529.56;;;-4.48;100.00
28310;BME280;15571;50.974;13.936;2024-01-11T01:11:33;101527.34;;;-4.43;100.00
28310;BME280;15571;50.974;13.936;2024-01-11T01:14:35;101526.44;;;-4.44;100.00
28310;BME280;15571;50.974;13.936;2024-01-11T01:17:38;101516.78;;;-4.48;100.00
28310;BME280;15571;50.974;13.936;2024-01-11T01:20:41;101505.44;;;-4.51;100.00
28310;BME280;15571;50.974;13.936;2024-01-11T01:23:43;101495.72;;;-4.56;100.00
28310;BME280;15571;50.974;13.936;2024-01-11T01:26:46;101498.72;;;-4.61;100.00
28310;BME280;15571;50.974;13.936;2024-01-11T01:29:51;101509.84;;;-4.61;100.00
28310;BME280;15571;50.974;13.936;2024-01-11T01:32:53;101517.19;;;-4.54;100.00
28310;BME280;15571;50.974;13.936;2024-01-11T01:35:58;101524.09;;;-4.53;100.00
28310;BME280;15571;50.974;13.936;2024-01-11T01:38:59;101523.59;;;-4.59;100.00
28310;BME280;15571;50.974;13.936;2024-01-11T01:42:01;101532.53;;;-4.54;100.00
28310;BME280;15571;50.974;13.936;2024-01-11T01:45:04;101535.75;;;-4.56;100.00
28310;BME280;15571;50.974;13.936;2024-01-11T01:48:06;101535.41;;;-4.61;100.00
28310;BME280;15571;50.974;13.936;2024-01-11T01:51:10;101541.81;;;-4.66;100.00
28310;BME280;15571;50.974;13.936;2024-01-11T01:54:12;101545.13;;;-4.67;100.00
28310;BME280;15571;50.974;13.936;2024-01-11T01:57:14;101539.75;;;-4.70;100.00
28310;BME280;15571;50.974;13.936;2024-01-11T02:00:18;101540.69;;;-4.70;100.00
28310;BME280;15571;50.974;13.936;2024-01-11T02:03:20;101539.75;;;-4.70;100.00
28310;BME280;15571;50.974;13.936;2024-01-11T02:06:24;101529.34;;;-4.73;100.00
28310;BME280;15571;50.974;13.936;2024-01-11T02:09:27;101538.53;;;-4.75;100.00
28310;BME280;15571;50.974;13.936;2024-01-11T02:12:32;101553.09;;;-4.74;100.00
28310;BME280;15571;50.974;13.936;2024-01-11T02:15:34;101546.97;;;-4.76;100.00
28310;BME280;15571;50.974;13.936;2024-01-11T02:18:40;101542.41;;;-4.80;100.00
28310;BME280;15571;50.974;13.936;2024-01-11T02:21:46;101558.38;;;-4.83;100.00
28310;BME280;15571;50.974;13.936;2024-01-11T02:24:50;101555.03;;;-4.82;100.00
28310;BME280;15571;50.974;13.936;2024-01-11T02:27:53;101544.06;;;-4.81;100.00
28310;BME280;15571;50.974;13.936;2024-01-11T02:30:55;101542.81;;;-4.86;100.00
28310;BME280;15571;50.974;13.936;2024-01-11T02:33:57;101545.22;;;-4.88;100.00
28310;BME280;15571;50.974;13.936;2024-01-11T02:36:59;101544.78;;;-4.94;100.00
28310;BME280;15571;50.974;13.936;2024-01-11T02:40:03;101547.31;;;-4.94;100.00
28310;BME280;15571;50.974;13.936;2024-01-11T02:43:09;101563.41;;;-4.95;100.00
28310;BME280;15571;50.974;13.936;2024-01-11T02:46:11;101565.97;;;-4.95;100.00
28310;BME280;15571;50.974;13.936;2024-01-11T02:49:13;101570.31;;;-4.94;100.00
28310;BME280;15571;50.974;13.936;2024-01-11T02:52:17;101563.41;;;-4.95;100.00
28310;BME280;15571;50.974;13.936;2024-01-11T02:55:20;101574.50;;;-4.94;100.00
28310;BME280;15571;50.974;13.936;2024-01-11T02:58:22;101578.75;;;-4.95;100.00
28310;BME280;15571;50.974;13.936;2024-01-11T03:01:24;101586.16;;;-4.98;100.00
28310;BME280;15571;50.974;13.936;2024-01-11T03:04:26;101573.16;;;-5.01;100.00
28310;BME280;15571;50.974;13.936;2024-01-11T03:07:31;101573.16;;;-5.01;100.00
28310;BME280;15571;50.974;13.936;2024-01-11T03:10:36;101565.00;;;-5.07;100.00
28310;BME280;15571;50.974;13.936;2024-01-11T03:13:39;101572.44;;;-5.10;100.00
28310;BME280;15571;50.974;13.936;2024-01-11T03:16:41;101572.78;;;-5.06;100.00
28310;BME280;15571;50.974;13.936;2024-01-11T03:19:43;101580.19;;;-5.09;100.00
28310;BME280;15571;50.974;13.936;2024-01-11T03:22:48;101578.41;;;-5.10;100.00
28310;BME280;15571;50.974;13.936;2024-01-11T03:25:52;101581.84;;;-5.09;100.00
28310;BME280;15571;50.974;13.936;2024-01-11T03:28:54;101575.22;;;-5.07;100.00
28310;BME280;15571;50.974;13.936;2024-01-11T03:31:56;101557.72;;;-5.13;100.00
28310;BME280;15571;50.974;13.936;2024-01-11T03:34:58;101532.38;;;-5.22;100.00
28310;BME280;15571;50.974;13.936;2024-01-11T03:38:00;101550.13;;;-5.23;100.00
28310;BME280;15571;50.974;13.936;2024-01-11T03:41:08;101553.75;;;-5.09;100.00
28310;BME280;15571;50.974;13.936;2024-01-11T03:44:10;101541.53;;;-5.13;100.00
28310;BME280;15571;50.974;13.936;2024-01-11T03:47:12;101520.38;;;-5.23;100.00
28310;BME280;15571;50.974;13.936;2024-01-11T03:50:14;101522.66;;;-5.48;100.00
28310;BME280;15571;50.974;13.936;2024-01-11T03:53:17;101505.00;;;-5.35;100.00
28310;BME280;15571;50.974;13.936;2024-01-11T03:56:22;101507.78;;;-5.32;100.00
28310;BME280;15571;50.974;13.936;2024-01-11T03:59:24;101504.59;;;-5.29;100.00
28310;BME280;15571;50.974;13.936;2024-01-11T04:02:26;101509.16;;;-5.25;100.00
28310;BME280;15571;50.974;13.936;2024-01-11T04:05:28;101504.59;;;-5.29;100.00
28310;BME280;15571;50.974;13.936;2024-01-11T04:08:30;101507.09;;;-5.62;100.00
28310;BME280;15571;50.974;13.936;2024-01-11T04:11:34;101490.25;;;-5.49;100.00
28310;BME280;15571;50.974;13.936;2024-01-11T04:14:39;101485.13;;;-5.49;100.00
28310;BME280;15571;50.974;13.936;2024-01-11T04:17:41;101489.72;;;-5.45;100.00
28310;BME280;15571;50.974;13.936;2024-01-11T04:20:43;101506.13;;;-5.64;100.00
28310;BME280;15571;50.974;13.936;2024-01-11T04:23:45;101509.47;;;-5.75;100.00
28310;BME280;15571;50.974;13.936;2024-01-11T04:26:49;101514.69;;;-5.73;100.00
28310;BME280;15571;50.974;13.936;2024-01-11T04:29:50;101523.34;;;-5.71;100.00
28310;BME280;15571;50.974;13.936;2024-01-11T04:32:52;101508.47;;;-5.44;100.00
28310;BME280;15571;50.974;13.936;2024-01-11T04:35:54;101522.88;;;-5.35;100.00
28310;BME280;15571;50.974;13.936;2024-01-11T04:38:56;101526.16;;;-5.25;100.00
28310;BME280;15571;50.974;13.936;2024-01-11T04:42:00;101547.03;;;-5.19;100.00
28310;BME280;15571;50.974;13.936;2024-01-11T04:45:02;101541.28;;;-5.17;100.00
28310;BME280;15571;50.974;13.936;2024-01-11T04:48:05;101555.06;;;-5.14;100.00
28310;BME280;15571;50.974;13.936;2024-01-11T04:51:09;101551.75;;;-5.13;100.00
28310;BME280;15571;50.974;13.936;2024-01-11T04:54:11;101549.72;;;-5.18;100.00
28310;BME280;15571;50.974;13.936;2024-01-11T04:57:14;101548.44;;;-5.12;100.00
28310;BME280;15571;50.974;13.936;2024-01-11T05:00:17;101560.19;;;-5.14;100.00
28310;BME280;15571;50.974;13.936;2024-01-11T05:03:19;101570.91;;;-5.19;100.00
28310;BME280;15571;50.974;13.936;2024-01-11T05:06:22;101562.38;;;-5.19;100.00
28310;BME280;15571;50.974;13.936;2024-01-11T05:09:25;101573.22;;;-5.22;100.00
28310;BME280;15571;50.974;13.936;2024-01-11T05:12:30;101581.13;;;-5.19;100.00
28310;BME280;15571;50.974;13.936;2024-01-11T05:15:33;101560.56;;;-5.20;100.00
28310;BME280;15571;50.974;13.936;2024-01-11T05:18:35;101544.13;;;-5.24;100.00
28310;BME280;15571;50.974;13.936;2024-01-11T05:21:37;101534.66;;;-5.14;100.00
28310;BME280;15571;50.974;13.936;2024-01-11T05:24:39;101547.31;;;-5.16;100.00
28310;BME280;15571;50.974;13.936;2024-01-11T05:27:43;101545.72;;;-5.14;100.00
28310;BME280;15571;50.974;13.936;2024-01-11T05:30:48;101541.28;;;-5.17;100.00
28310;BME280;15571;50.974;13.936;2024-01-11T05:33:50;101549.97;;;-5.14;100.00
28310;BME280;15571;50.974;13.936;2024-01-11T05:36:54;101570.91;;;-5.19;100.00
28310;BME280;15571;50.974;13.936;2024-01-11T05:39:58;101577.59;;;-5.31;100.00
28310;BME280;15571;50.974;13.936;2024-01-11T05:43:01;101563.09;;;-5.42;100.00
28310;BME280;15571;50.974;13.936;2024-01-11T05:46:03;101546.06;;;-5.32;100.00
28310;BME280;15571;50.974;13.936;2024-01-11T05:49:05;101552.31;;;-5.28;100.00
28310;BME280;15571;50.974;13.936;2024-01-11T05:52:08;101550.75;;;-5.26;100.00
28310;BME280;15571;50.974;13.936;2024-01-11T05:55:12;101567.09;;;-5.24;100.00
28310;BME280;15571;50.974;13.936;2024-01-11T05:58:15;101575.25;;;-5.18;100.00
28310;BME280;15571;50.974;13.936;2024-01-11T06:01:17;101568.94;;;-5.33;100.00
28310;BME280;15571;50.974;13.936;2024-01-11T06:04:19;101581.72;;;-5.43;100.00
28310;BME280;15571;50.974;13.936;2024-01-11T06:07:21;101574.03;;;-5.33;100.00
28310;BME280;15571;50.974;13.936;2024-01-11T06:10:26;101582.19;;;-5.37;100.00
28310;BME280;15571;50.974;13.936;2024-01-11T06:13:30;101560.00;;;-5.38;100.00
28310;BME280;15571;50.974;13.936;2024-01-11T06:16:32;101570.44;;;-5.35;100.00
28310;BME280;15571;50.974;13.936;2024-01-11T06:19:34;101563.81;;;-5.33;100.00
28310;BME280;15571;50.974;13.936;2024-01-11T06:22:36;101575.31;;;-5.38;100.00
28310;BME280;15571;50.974;13.936;2024-01-11T06:25:40;101595.91;;;-5.57;100.00
28310;BME280;15571;50.974;13.936;2024-01-11T06:28:43;101589.13;;;-5.57;100.00
28310;BME280;15571;50.974;13.936;2024-01-11T06:31:45;101585.69;;;-5.47;100.00
28310;BME280;15571;50.974;13.936;2024-01-11T06:34:47;101582.09;;;-5.49;100.00
28310;BME280;15571;50.974;13.936;2024-01-11T06:37:49;101597.16;;;-5.52;100.00
28310;BME280;15571;50.974;13.936;2024-01-11T06:40:50;101592.31;;;-5.49;100.00
28310;BME280;15571;50.974;13.936;2024-01-11T06:43:57;101569.72;;;-5.44;100.00
28310;BME280;15571;50.974;13.936;2024-01-11T06:46:59;101575.97;;;-5.41;100.00
28310;BME280;15571;50.974;13.936;2024-01-11T06:50:02;101571.09;;;-5.38;100.00
28310;BME280;15571;50.974;13.936;2024-01-11T06:53:04;101542.66;;;-5.42;100.00
28310;BME280;15571;50.974;13.936;2024-01-11T06:56:12;101555.69;;;-5.39;100.00
28310;BME280;15571;50.974;13.936;2024-01-11T06:59:16;101553.59;;;-5.33;100.00
28310;BME280;15571;50.974;13.936;2024-01-11T07:02:19;101528.09;;;-5.33;100.00
28310;BME280;15571;50.974;13.936;2024-01-11T07:05:21;101524.47;;;-5.25;100.00
28310;BME280;15571;50.974;13.936;2024-01-11T07:08:23;101522.19;;;-5.22;100.00
28310;BME280;15571;50.974;13.936;2024-01-11T07:11:25;101517.28;;;-5.19;100.00
28310;BME280;15571;50.974;13.936;2024-01-11T07:14:28;101521.13;;;-5.13;100.00
28310;BME280;15571;50.974;13.936;2024-01-11T07:17:31;101513.16;;;-5.06;100.00
28310;BME280;15571;50.974;13.936;2024-01-11T07:20:33;101527.81;;;-5.04;100.00
28310;BME280;15571;50.974;13.936;2024-01-11T07:23:37;101515.72;;;-5.06;100.00
28310;BME280;15571;50.974;13.936;2024-01-11T07:26:39;101518.81;;;-5.10;100.00
28310;BME280;15571;50.974;13.936;2024-01-11T07:29:43;101494.50;;;-5.05;100.00
28310;BME280;15571;50.974;13.936;2024-01-11T07:32:45;101499.81;;;-4.92;100.00
28310;BME280;15571;50.974;13.936;2024-01-11T07:35:47;101502.13;;;-4.95;100.00
28310;BME280;15571;50.974;13.936;2024-01-11T07:38:49;101483.47;;;-4.94;100.00
28310;BME280;15571;50.974;13.936;2024-01-11T07:41:54;101486.47;;;-4.88;100.00
28310;BME280;15571;50.974;13.936;2024-01-11T07:44:57;101516.38;;;-4.87;100.00
28310;BME280;15571;50.974;13.936;2024-01-11T07:47:59;101500.88;;;-5.00;100.00
28310;BME280;15571;50.974;13.936;2024-01-11T07:51:03;101506.66;;;-4.80;100.00
28310;BME280;15571;50.974;13.936;2024-01-11T07:54:05;101496.53;;;-4.79;100.00
28310;BME280;15571;50.974;13.936;2024-01-11T07:57:07;101500.03;;;-4.66;100.00
28310;BME280;15571;50.974;13.936;2024-01-11T08:00:11;101491.72;;;-4.64;100.00
28310;BME280;15571;50.974;13.936;2024-01-11T08:03:14;101490.38;;;-4.59;100.00
28310;BME280;15571;50.974;13.936;2024-01-11T08:06:15;101490.88;;;-4.53;100.00
28310;BME280;15571;50.974;13.936;2024-01-11T08:09:17;101509.31;;;-4.45;100.00
28310;BME280;15571;50.974;13.936;2024-01-11T08:12:19;101518.13;;;-4.41;100.00
28310;BME280;15571;50.974;13.936;2024-01-11T08:15:22;101535.91;;;-4.31;100.00
28310;BME280;15571;50.974;13.936;2024-01-11T08:18:25;101527.19;;;-4.23;100.00
28310;BME280;15571;50.974;13.936;2024-01-11T08:21:27;101523.97;;;-4.08;100.00
28310;BME280;15571;50.974;13.936;2024-01-11T08:24:29;101512.88;;;-3.97;100.00
28310;BME280;15571;50.974;13.936;2024-01-11T08:27:31;101506.66;;;-3.88;100.00
28310;BME280;15571;50.974;13.936;2024-01-11T08:30:34;101503.78;;;-3.81;100.00
28310;BME280;15571;50.974;13.936;2024-01-11T08:33:37;101515.34;;;-3.86;100.00
28310;BME280;15571;50.974;13.936;2024-01-11T08:36:39;101526.69;;;-3.71;100.00
28310;BME280;15571;50.974;13.936;2024-01-11T08:39:43;101539.81;;;-3.78;100.00
28310;BME280;15571;50.974;13.936;2024-01-11T08:42:46;101520.94;;;-3.68;100.00
28310;BME280;15571;50.974;13.936;2024-01-11T08:45:52;101515.81;;;-3.56;100.00
28310;BME280;15571;50.974;13.936;2024-01-11T08:48:54;101519.81;;;-3.48;100.00
28310;BME280;15571;50.974;13.936;2024-01-11T08:51:57;101522.78;;;-3.42;100.00
28310;BME280;15571;50.974;13.936;2024-01-11T08:54:59;101510.47;;;-3.36;100.00
28310;BME280;15571;50.974;13.936;2024-01-11T08:58:05;101522.56;;;-3.21;100.00
28310;BME280;15571;50.974;13.936;2024-01-11T09:01:08;101516.75;;;-3.07;100.00
28310;BME280;15571;50.974;13.936;2024-01-11T09:04:10;101495.91;;;-3.00;100.00
28310;BME280;15571;50.974;13.936;2024-01-11T09:07:14;101502.75;;;-2.87;100.00
28310;BME280;15571;50.974;13.936;2024-01-11T09:10:19;101495.63;;;-2.79;100.00
28310;BME280;15571;50.974;13.936;2024-01-11T09:13:21;101516.91;;;-2.80;100.00
28310;BME280;15571;50.974;13.936;2024-01-11T09:16:34;101527.94;;;-2.81;100.00
28310;BME280;15571;50.974;13.936;2024-01-11T09:19:38;101518.81;;;-2.89;100.00
28310;BME280;15571;50.974;13.936;2024-01-11T09:22:43;101525.81;;;-2.75;100.00
28310;BME280;15571;50.974;13.936;2024-01-11T09:25:45;101530.50;;;-2.81;100.00
28310;BME280;15571;50.974;13.936;2024-01-11T09:28:48;101529.16;;;-2.76;100.00
28310;BME280;15571;50.974;13.936;2024-01-11T09:31:52;101512.25;;;-2.60;100.00
28310;BME280;15571;50.974;13.936;2024-01-11T09:34:55;101518.78;;;-2.52;100.00
28310;BME280;15571;50.974;13.936;2024-01-11T09:37:57;101513.94;;;-2.36;100.00
28310;BME280;15571;50.974;13.936;2024-01-11T09:41:01;101500.03;;;-2.26;100.00
28310;BME280;15571;50.974;13.936;2024-01-11T09:44:07;101502.66;;;-2.12;100.00
28310;BME280;15571;50.974;13.936;2024-01-11T09:47:11;101529.00;;;-2.01;100.00
28310;BME280;15571;50.974;13.936;2024-01-11T09:50:15;101526.47;;;-1.88;100.00
28310;BME280;15571;50.974;13.936;2024-01-11T09:53:21;101530.00;;;-1.86;100.00
28310;BME280;15571;50.974;13.936;2024-01-11T09:56:24;101529.31;;;-1.97;100.00
28310;BME280;15571;50.974;13.936;2024-01-11T09:59:28;101525.22;;;-1.81;100.00
28310;BME280;15571;50.974;13.936;2024-01-11T10:02:31;101521.84;;;-1.67;100.00
28310;BME280;15571;50.974;13.936;2024-01-11T10:05:36;101517.31;;;-1.58;100.00
28310;BME280;15571;50.974;13.936;2024-01-11T10:08:38;101503.09;;;-1.52;100.00
28310;BME280;15571;50.974;13.936;2024-01-11T10:11:41;101489.34;;;-1.53;100.00
28310;BME280;15571;50.974;13.936;2024-01-11T10:14:42;101493.34;;;-1.58;100.00
28310;BME280;15571;50.974;13.936;2024-01-11T10:17:46;101500.25;;;-1.57;100.00
28310;BME280;15571;50.974;13.936;2024-01-11T10:20:48;101493.41;;;-1.57;100.00
28310;BME280;15571;50.974;13.936;2024-01-11T10:23:52;101493.50;;;-1.55;100.00
28310;BME280;15571;50.974;13.936;2024-01-11T10:26:56;101494.28;;;-1.56;100.00
28310;BME280;15571;50.974;13.936;2024-01-11T10:29:59;101486.59;;;-1.56;100.00
28310;BME280;15571;50.974;13.936;2024-01-11T10:33:04;101475.66;;;-1.53;100.00
28310;BME280;15571;50.974;13.936;2024-01-11T10:36:10;101469.91;;;-1.49;100.00
28310;BME280;15571;50.974;13.936;2024-01-11T10:39:13;101459.03;;;-1.45;100.00
28310;BME280;15571;50.974;13.936;2024-01-11T10:42:18;101457.34;;;-1.45;100.00
28310;BME280;15571;50.974;13.936;2024-01-11T10:45:25;101459.25;;;-1.42;100.00
28310;BME280;15571;50.974;13.936;2024-01-11T10:48:30;101456.75;;;-1.41;100.00
28310;BME280;15571;50.974;13.936;2024-01-11T10:51:32;101453.41;;;-1.39;100.00
28310;BME280;15571;50.974;13.936;2024-01-11T10:54:40;101438.97;;;-1.37;100.00
28310;BME280;15571;50.974;13.936;2024-01-11T10:57:44;101443.63;;;-1.45;100.00
28310;BME280;15571;50.974;13.936;2024-01-11T11:00:48;101431.38;;;-1.49;100.00
28310;BME280;15571;50.974;13.936;2024-01-11T11:03:55;101435.81;;;-1.47;100.00
28310;BME280;15571;50.974;13.936;2024-01-11T11:07:02;101421.81;;;-1.52;100.00
28310;BME280;15571;50.974;13.936;2024-01-11T11:10:04;101418.44;;;-1.51;100.00
28310;BME280;15571;50.974;13.936;2024-01-11T11:13:08;101412.22;;;-1.54;100.00
28310;BME280;15571;50.974;13.936;2024-01-11T11:16:10;101407.09;;;-1.54;100.00
28310;BME280;15571;50.974;13.936;2024-01-11T11:19:13;101394.53;;;-1.50;100.00
28310;BME280;15571;50.974;13.936;2024-01-11T11:22:16;101395.63;;;-1.46;100.00
28310;BME280;15571;50.974;13.936;2024-01-11T11:25:23;101405.19;;;-1.44;100.00
28310;BME280;15571;50.974;13.936;2024-01-11T11:28:28;101402.81;;;-1.41;100.00
28310;BME280;15571;50.974;13.936;2024-01-11T11:31:34;101406.16;;;-1.28;100.00
28310;BME280;15571;50.974;13.936;2024-01-11T11:34:41;101400.03;;;-1.30;100.00
28310;BME280;15571;50.974;13.936;2024-01-11T11:37:45;101393.25;;;-1.15;100.00
28310;BME280;15571;50.974;13.936;2024-01-11T11:40:47;101378.56;;;-1.02;100.00
28310;BME280;15571;50.974;13.936;2024-01-11T11:43:51;101366.88;;;-0.97;100.00
28310;BME280;15571;50.974;13.936;2024-01-11T11:46:56;101365.81;;;-0.86;100.00
28310;BME280;15571;50.974;13.936;2024-01-11T11:50:21;101368.00;;;-0.79;100.00
28310;BME280;15571;50.974;13.936;2024-01-11T11:53:24;101359.56;;;-0.61;100.00
28310;BME280;15571;50.974;13.936;2024-01-11T11:56:26;101365.13;;;-0.53;100.00
28310;BME280;15571;50.974;13.936;2024-01-11T11:59:28;101363.66;;;-0.35;100.00
28310;BME280;15571;50.974;13.936;2024-01-11T12:02:31;101358.50;;;-0.20;100.00
28310;BME280;15571;50.974;13.936;2024-01-11T12:05:39;101351.28;;;-0.10;100.00
28310;BME280;15571;50.974;13.936;2024-01-11T12:08:41;101351.16;;;0.03;100.00
28310;BME280;15571;50.974;13.936;2024-01-11T12:11:45;101348.56;;;0.03;100.00
28310;BME280;15571;50.974;13.936;2024-01-11T12:14:49;101356.47;;;0.06;100.00
28310;BME280;15571;50.974;13.936;2024-01-11T12:17:57;101351.44;;;-0.07;100.00
28310;BME280;15571;50.974;13.936;2024-01-11T12:21:00;101346.97;;;0.05;100.00
28310;BME280;15571;50.974;13.936;2024-01-11T12:24:03;101350.59;;;0.09;100.00
28310;BME280;15571;50.974;13.936;2024-01-11T12:27:05;101343.31;;;0.17;100.00
28310;BME280;15571;50.974;13.936;2024-01-11T12:30:07;101341.06;;;0.23;100.00
28310;BME280;15571;50.974;13.936;2024-01-11T12:33:15;101344.25;;;0.34;100.00
28310;BME280;15571;50.974;13.936;2024-01-11T12:36:18;101331.44;;;0.35;100.00
28310;BME280;15571;50.974;13.936;2024-01-11T12:39:21;101320.81;;;0.45;100.00
28310;BME280;15571;50.974;13.936;2024-01-11T12:42:26;101326.28;;;0.52;100.00
28310;BME280;15571;50.974;13.936;2024-01-11T12:45:33;101322.97;;;0.54;100.00
28310;BME280;15571;50.974;13.936;2024-01-11T12:48:36;101324.06;;;0.58;100.00
28310;BME280;15571;50.974;13.936;2024-01-11T12:51:39;101328.38;;;0.59;100.00
28310;BME280;15571;50.974;13.936;2024-01-11T12:54:41;101321.47;;;0.58;100.00
28310;BME280;15571;50.974;13.936;2024-01-11T12:57:45;101312.09;;;0.60;100.00
28310;BME280;15571;50.974;13.936;2024-01-11T13:00:48;101308.91;;;0.64;100.00
28310;BME280;15571;50.974;13.936;2024-01-11T13:03:50;101308.28;;;0.68;100.00
28310;BME280;15571;50.974;13.936;2024-01-11T13:06:54;101303.41;;;0.74;100.00
28310;BME280;15571;50.974;13.936;2024-01-11T13:09:58;101314.53;;;0.73;100.00
28310;BME280;15571;50.974;13.936;2024-01-11T13:13:00;101310.19;;;0.72;100.00
28310;BME280;15571;50.974;13.936;2024-01-11T13:16:02;101311.81;;;0.54;100.00
28310;BME280;15571;50.974;13.936;2024-01-11T13:19:06;101313.63;;;0.56;100.00
28310;BME280;15571;50.974;13.936;2024-01-11T13:22:09;101313.88;;;0.61;100.00
28310;BME280;15571;50.974;13.936;2024-01-11T13:25:11;101309.63;;;0.61;100.00
28310;BME280;15571;50.974;13.936;2024-01-11T13:28:13;101306.66;;;0.54;100.00
28310;BME280;15571;50.974;13.936;2024-01-11T13:31:15;101304.25;;;0.57;100.00
28310;BME280;15571;50.974;13.936;2024-01-11T13:34:20;101295.22;;;0.65;100.00
28310;BME280;15571;50.974;13.936;2024-01-11T13:37:25;101285.06;;;0.68;100.00
28310;BME280;15571;50.974;13.936;2024-01-11T13:40:29;101274.59;;;0.65;100.00
28310;BME280;15571;50.974;13.936;2024-01-11T13:43:31;101270.75;;;0.57;100.00
28310;BME280;15571;50.974;13.936;2024-01-11T13:46:33;101274.13;;;0.56;100.00
28310;BME280;15571;50.974;13.936;2024-01-11T13:49:38;101293.53;;;0.49;100.00
28310;BME280;15571;50.974;13.936;2024-01-11T13:52:41;101302.47;;;0.56;100.00
28310;BME280;15571;50.974;13.936;2024-01-11T13:55:43;101310.84;;;0.68;100.00
28310;BME280;15571;50.974;13.936;2024-01-11T13:58:52;101300.38;;;0.65;100.00
28310;BME280;15571;50.974;13.936;2024-01-11T14:01:54;101303.25;;;0.71;100.00
28310;BME280;15571;50.974;13.936;2024-01-11T14:04:56;101301.41;;;0.69;100.00
28310;BME280;15571;50.974;13.936;2024-01-11T14:07:59;101300.38;;;0.65;100.00
28310;BME280;15571;50.974;13.936;2024-01-11T14:11:04;101305.28;;;0.60;100.00
28310;BME280;15571;50.974;13.936;2024-01-11T14:14:08;101289.31;;;0.68;100.00
28310;BME280;15571;50.974;13.936;2024-01-11T14:17:10;101294.81;;;0.57;100.00
28310;BME280;15571;50.974;13.936;2024-01-11T14:20:19;101301.91;;;0.61;100.00
28310;BME280;15571;50.974;13.936;2024-01-11T14:23:23;101302.38;;;0.54;100.00
28310;BME280;15571;50.974;13.936;2024-01-11T14:26:26;101293.69;;;0.52;100.00
28310;BME280;15571;50.974;13.936;2024-01-11T14:29:28;101294.72;;;0.56;100.00
28310;BME280;15571;50.974;13.936;2024-01-11T14:32:30;101286.84;;;0.53;100.00
28310;BME280;15571;50.974;13.936;2024-01-11T14:35:32;101294.72;;;0.56;100.00
28310;BME280;15571;50.974;13.936;2024-01-11T14:38:36;101306.78;;;0.40;100.00
28310;BME280;15571;50.974;13.936;2024-01-11T14:41:41;101305.66;;;0.35;100.00
28310;BME280;15571;50.974;13.936;2024-01-11T14:44:43;101307.38;;;0.51;100.00
28310;BME280;15571;50.974;13.936;2024-01-11T14:47:45;101305.53;;;0.49;100.00
28310;BME280;15571;50.974;13.936;2024-01-11T14:50:47;101308.97;;;0.49;100.00
28310;BME280;15571;50.974;13.936;2024-01-11T14:53:50;101317.91;;;0.56;100.00
28310;BME280;15571;50.974;13.936;2024-01-11T14:56:52;101308.66;;;0.43;100.00
28310;BME280;15571;50.974;13.936;2024-01-11T14:59:54;101317.75;;;0.36;100.00
28310;BME280;15571;50.974;13.936;2024-01-11T15:02:57;101313.09;;;0.45;100.00
28310;BME280;15571;50.974;13.936;2024-01-11T15:05:58;101304.63;;;0.48;100.00
28310;BME280;15571;50.974;13.936;2024-01-11T15:09:05;101307.75;;;0.42;100.00
28310;BME280;15571;50.974;13.936;2024-01-11T15:12:10;101310.81;;;0.35;100.00
28310;BME280;15571;50.974;13.936;2024-01-11T15:15:12;101315.31;;;0.39;100.00
28310;BME280;15571;50.974;13.936;2024-01-11T15:18:14;101313.09;;;0.29;100.00
28310;BME280;15571;50.974;13.936;2024-01-11T15:21:16;101313.09;;;0.29;100.00
28310;BME280;15571;50.974;13.936;2024-01-11T15:24:20;101327.50;;;0.10;100.00
28310;BME280;15571;50.974;13.936;2024-01-11T15:27:22;101329.13;;;0.08;100.00
28310;BME280;15571;50.974;13.936;2024-01-11T15:30:24;101324.31;;;0.14;100.00
28310;BME280;15571;50.974;13.936;2024-01-11T15:33:26;101333.47;;;0.09;100.00
28310;BME280;15571;50.974;13.936;2024-01-11T15:36:28;101328.16;;;0.06;100.00